Terminal Aerodrome Forecast
Issued by NWS

Home | Current Version | Previous Version | Text Only | Print | Product List | Glossary On
Versions: 1 2 3 4 5 6 7 8 9 10 11 12 13 14 15 16 17 18 19
000
FTUS43 KGRB 310500
TAFCWA
TAF
KCWA 310520Z 3106/0106 31015G25KT P6SM SCT025 BKN050
      TEMPO 3106/3108 3SM -SHSN BKN025
     FM310800 34017G28KT P6SM SCT020 BKN035
     FM312000 35012G20KT P6SM SCT040
     FM312300 34005KT P6SM SKC
      AMD LTD TO CLD VIS AND WIND TIL 311200=

USA.gov is the U.S. government's official web portal to all federal, state and local government web resources and services.